Time;durP1;ratioP1;P1;durP2;ratioP2;P2;SDS_P1;SDS_P2;PMS_P1;PMS_P2;Temp;Humidity;BMP_temperature;BMP_pressure;BME280_temperature;BME280_humidity;BME280_pressure;Samples;Min_cycle;Max_cycle;Signal;HPM_P1;HPM_P2
2021/12/26 00:01:06;;;;;;;2.85;1.40;;;-6.40;99.90;;;;;;5110843;27;20046;-77
2021/12/26 00:03:33;;;;;;;2.60;1.50;;;-5.10;99.90;;;;;;5110568;27;20050;-79
2021/12/26 00:06:05;;;;;;;2.63;1.50;;;-6.40;99.90;;;;;;5108108;27;20048;-77
2021/12/26 00:08:33;;;;;;;2.63;1.70;;;-5.10;99.90;;;;;;5111470;27;20451;-79
2021/12/26 00:10:59;;;;;;;4.70;1.70;;;-4.40;99.90;;;;;;5112933;27;20053;-77
2021/12/26 00:13:24;;;;;;;5.00;1.50;;;-6.40;99.90;;;;;;5079750;27;20051;-77
2021/12/26 00:15:53;;;;;;;3.28;1.70;;;-6.40;99.90;;;;;;5113203;27;20467;-77
2021/12/26 00:18:19;;;;;;;3.40;1.75;;;-5.10;99.90;;;;;;5098136;27;20074;-78
2021/12/26 00:20:47;;;;;;;3.15;1.58;;;-6.10;99.90;;;;;;5129354;27;20466;-79
2021/12/26 00:23:14;;;;;;;2.65;1.65;;;-4.40;99.90;;;;;;5095940;27;20121;-77
2021/12/26 00:25:40;;;;;;;2.65;1.75;;;-6.90;99.90;;;;;;5129584;27;20152;-78
2021/12/26 00:28:06;;;;;;;3.00;1.58;;;-6.40;99.90;;;;;;5114447;27;20074;-77
2021/12/26 00:30:32;;;;;;;2.17;1.30;;;-6.30;99.90;;;;;;5113219;27;20091;-77
2021/12/26 00:32:58;;;;;;;2.28;1.58;;;-4.60;99.90;;;;;;5111841;27;20070;-77
2021/12/26 00:35:25;;;;;;;4.90;1.92;;;-6.40;99.90;;;;;;5112512;27;20118;-77
2021/12/26 00:37:51;;;;;;;2.90;1.55;;;-6.00;99.90;;;;;;5112866;27;20060;-77
2021/12/26 00:40:19;;;;;;;4.40;2.00;;;-6.30;99.90;;;;;;5095030;27;20351;-77
2021/12/26 00:42:46;;;;;;;2.38;1.55;;;-6.30;99.90;;;;;;5095479;27;20180;-77
2021/12/26 00:45:13;;;;;;;3.03;1.40;;;-6.40;99.90;;;;;;5080078;27;20066;-77
2021/12/26 00:47:39;;;;;;;2.70;1.50;;;-6.30;99.90;;;;;;5112716;27;20046;-77
2021/12/26 00:50:09;;;;;;;3.28;1.40;;;-4.70;99.90;;;;;;5127828;27;20043;-77
2021/12/26 00:52:36;;;;;;;2.95;1.48;;;-6.40;99.90;;;;;;5130834;27;20051;-78
2021/12/26 00:55:04;;;;;;;3.65;1.60;;;-6.40;99.90;;;;;;5114208;27;20071;-77
2021/12/26 00:57:30;;;;;;;2.60;1.50;;;-6.40;99.90;;;;;;5111959;27;20827;-78
2021/12/26 00:59:56;;;;;;;5.00;1.42;;;-6.50;99.90;;;;;;5113308;27;20042;-77
2021/12/26 01:02:22;;;;;;;3.22;1.67;;;-6.40;99.90;;;;;;5107105;27;20104;-77
2021/12/26 01:04:47;;;;;;;3.65;1.60;;;-4.60;99.90;;;;;;5095382;27;20036;-76
2021/12/26 01:07:33;;;;;;;2.28;1.50;;;-6.50;99.90;;;;;;5122132;27;20131;-77
2021/12/26 01:09:59;;;;;;;3.03;1.50;;;-6.40;99.90;;;;;;5127629;27;20046;-77
2021/12/26 01:12:25;;;;;;;2.35;1.50;;;-4.70;99.90;;;;;;5111342;27;20061;-77
2021/12/26 01:14:57;;;;;;;2.67;1.50;;;-4.60;99.90;;;;;;5096283;27;20122;-77
2021/12/26 01:17:25;;;;;;;4.40;1.70;;;-4.30;99.90;;;;;;5095729;27;20555;-77
2021/12/26 01:19:53;;;;;;;3.22;1.80;;;-6.50;99.90;;;;;;5113558;27;20043;-77
2021/12/26 01:22:20;;;;;;;2.88;1.60;;;-6.50;99.90;;;;;;5109003;27;20374;-76
2021/12/26 01:24:56;;;;;;;2.90;1.33;;;-6.50;99.90;;;;;;5125645;27;20058;-77
2021/12/26 01:27:27;;;;;;;3.88;1.95;;;-6.50;99.90;;;;;;5112742;27;20043;-76
2021/12/26 01:29:53;;;;;;;2.17;1.45;;;-6.50;99.90;;;;;;5111849;27;20075;-77
2021/12/26 01:32:20;;;;;;;4.85;1.55;;;-6.50;99.90;;;;;;5109534;27;20149;-76
2021/12/26 01:34:47;;;;;;;3.63;1.45;;;-4.90;99.90;;;;;;5109780;27;20059;-77
2021/12/26 01:37:13;;;;;;;2.13;1.20;;;-6.50;99.90;;;;;;5108786;27;20042;-76
2021/12/26 01:39:39;;;;;;;2.22;1.52;;;-5.50;99.90;;;;;;5126428;27;20073;-77
2021/12/26 01:42:08;;;;;;;3.25;1.40;;;-6.50;99.90;;;;;;5110439;27;20513;-76
2021/12/26 01:44:34;;;;;;;4.45;1.50;;;-4.90;99.90;;;;;;5107570;27;20043;-78
2021/12/26 01:47:00;;;;;;;3.63;1.58;;;-6.50;99.90;;;;;;5111338;27;20145;-79
2021/12/26 01:49:29;;;;;;;2.10;1.38;;;-4.70;99.90;;;;;;5120300;27;20175;-79
2021/12/26 01:51:58;;;;;;;2.97;1.40;;;-4.50;99.90;;;;;;5125932;27;20493;-78
2021/12/26 01:54:32;;;;;;;2.53;1.33;;;-6.60;99.90;;;;;;5127566;27;20045;-78
2021/12/26 01:56:59;;;;;;;3.08;1.70;;;-8.70;99.90;;;;;;5130955;27;20102;-75
2021/12/26 01:59:25;;;;;;;4.82;1.55;;;-6.50;99.90;;;;;;5127902;27;20531;-76
2021/12/26 02:01:54;;;;;;;3.92;1.58;;;-6.50;99.90;;;;;;5108327;27;20099;-77
2021/12/26 02:04:19;;;;;;;1.98;1.40;;;-5.40;99.90;;;;;;5118204;27;20042;-77
2021/12/26 02:06:45;;;;;;;2.92;1.50;;;-6.60;99.90;;;;;;5124020;27;20046;-79
2021/12/26 02:09:12;;;;;;;2.40;1.35;;;-6.60;99.90;;;;;;5111735;27;20054;-78
2021/12/26 02:11:40;;;;;;;3.75;1.60;;;-6.30;99.90;;;;;;5112093;27;20442;-78
2021/12/26 02:14:05;;;;;;;3.33;1.67;;;-6.50;99.90;;;;;;5093257;27;20130;-78
2021/12/26 02:16:32;;;;;;;3.17;1.48;;;;;;;;;;5129155;27;20117;-78
2021/12/26 02:18:58;;;;;;;2.05;1.45;;;;;;;;;;5110088;27;20042;-77
2021/12/26 02:24:25;;;;;;;2.47;1.38;;;-6.60;99.90;;;;;;5112306;27;20086;-77
2021/12/26 02:29:39;;;;;;;1.42;1.00;;;-6.70;99.90;;;;;;5125433;27;20038;-77
2021/12/26 02:32:06;;;;;;;4.03;1.50;;;-6.70;99.90;;;;;;5117198;27;20546;-75
2021/12/26 02:34:31;;;;;;;2.70;1.42;;;-6.60;99.90;;;;;;5107613;27;20451;-76
2021/12/26 02:36:57;;;;;;;3.53;1.50;;;-8.10;99.90;;;;;;5125871;27;20051;-79
2021/12/26 02:39:23;;;;;;;3.13;1.40;;;;;;;;;;5097178;27;20514;-78
2021/12/26 02:41:49;;;;;;;3.40;1.45;;;-6.60;99.90;;;;;;5126318;27;20043;-77
2021/12/26 02:44:15;;;;;;;2.65;1.30;;;-6.70;99.90;;;;;;5096153;27;20049;-78
2021/12/26 02:46:41;;;;;;;2.17;1.45;;;-6.70;99.90;;;;;;5107745;27;20045;-77
2021/12/26 02:49:08;;;;;;;3.25;1.33;;;-6.60;99.90;;;;;;5118166;27;20094;-76
2021/12/26 02:51:34;;;;;;;2.03;1.15;;;-6.90;99.90;;;;;;5111043;27;20042;-76
2021/12/26 02:54:00;;;;;;;2.33;1.40;;;-6.70;99.90;;;;;;5123523;27;20049;-76
2021/12/26 02:56:26;;;;;;;3.83;1.67;;;-6.80;99.90;;;;;;5110906;27;20047;-76
2021/12/26 02:58:52;;;;;;;3.03;1.60;;;-6.30;99.90;;;;;;5125755;27;20624;-76
2021/12/26 03:01:29;;;;;;;2.88;1.50;;;-6.70;99.90;;;;;;5094756;27;20134;-77
2021/12/26 03:03:55;;;;;;;2.60;1.25;;;-5.50;99.90;;;;;;5105771;27;20039;-76
2021/12/26 03:06:37;;;;;;;2.22;1.50;;;-6.80;99.90;;;;;;5124248;27;20042;-76
2021/12/26 03:09:04;;;;;;;2.83;1.17;;;-6.70;99.90;;;;;;5109826;27;20062;-77
2021/12/26 03:11:30;;;;;;;4.10;1.48;;;-6.80;99.90;;;;;;5112607;27;20120;-76
2021/12/26 03:13:56;;;;;;;2.22;1.23;;;-6.70;99.90;;;;;;5122086;27;20449;-76
2021/12/26 03:16:22;;;;;;;3.72;1.30;;;-6.70;99.90;;;;;;5124884;27;20058;-76
2021/12/26 03:18:48;;;;;;;4.18;1.52;;;-6.60;99.90;;;;;;5124588;27;20039;-77
2021/12/26 03:21:14;;;;;;;2.55;1.33;;;-4.90;99.90;;;;;;5106975;27;20400;-76
2021/12/26 03:23:40;;;;;;;2.83;1.27;;;-6.70;99.90;;;;;;5124132;27;20487;-76
2021/12/26 03:26:06;;;;;;;3.03;1.40;;;-6.70;99.90;;;;;;5110529;27;20043;-76
2021/12/26 03:28:33;;;;;;;2.58;1.50;;;-6.70;99.90;;;;;;5127635;27;20042;-76
2021/12/26 03:31:00;;;;;;;3.05;1.20;;;-6.70;99.90;;;;;;5111035;27;20047;-75
2021/12/26 03:33:27;;;;;;;2.55;1.40;;;-6.80;99.90;;;;;;5126201;27;20111;-76
2021/12/26 03:35:53;;;;;;;3.03;1.40;;;-6.80;99.90;;;;;;5110964;27;20046;-76
2021/12/26 03:38:21;;;;;;;2.75;1.63;;;-6.80;99.90;;;;;;5110211;27;20091;-76
2021/12/26 03:40:48;;;;;;;3.25;1.50;;;-6.90;99.90;;;;;;5125464;27;20047;-76
2021/12/26 03:43:14;;;;;;;2.17;1.50;;;-6.80;99.90;;;;;;5110401;27;20109;-76
2021/12/26 03:45:41;;;;;;;2.28;1.40;;;-6.80;99.90;;;;;;5128437;27;20049;-75
2021/12/26 03:48:08;;;;;;;1.67;1.15;;;-8.00;99.90;;;;;;5108928;27;20047;-76
2021/12/26 03:50:34;;;;;;;4.15;1.35;;;-6.90;99.90;;;;;;5108998;27;20046;-76
2021/12/26 03:53:02;;;;;;;1.98;1.27;;;-6.90;99.90;;;;;;5076442;27;20047;-76
2021/12/26 03:55:29;;;;;;;3.00;1.48;;;-6.80;99.90;;;;;;5144054;27;20057;-76
2021/12/26 03:57:54;;;;;;;3.45;1.40;;;-6.90;99.90;;;;;;5091239;27;20077;-76
2021/12/26 04:00:22;;;;;;;3.80;1.30;;;-6.80;99.90;;;;;;5108883;27;20047;-76
2021/12/26 04:02:48;;;;;;;1.73;1.10;;;-6.80;99.90;;;;;;5110785;27;20046;-76
2021/12/26 04:05:15;;;;;;;2.95;1.30;;;-6.90;99.90;;;;;;5125615;27;20042;-75
2021/12/26 04:07:42;;;;;;;3.05;1.70;;;-6.80;99.90;;;;;;5108056;27;20043;-76
2021/12/26 04:10:09;;;;;;;2.05;1.38;;;-6.90;99.90;;;;;;5111836;27;20110;-76
2021/12/26 04:12:37;;;;;;;3.50;1.33;;;-5.80;99.90;;;;;;5110046;27;20449;-76
2021/12/26 04:15:09;;;;;;;2.63;1.30;;;-6.90;99.90;;;;;;5129659;27;20049;-76
2021/12/26 04:17:35;;;;;;;2.47;1.35;;;-6.90;99.90;;;;;;5112272;27;20129;-76
2021/12/26 04:20:02;;;;;;;2.00;1.30;;;-4.80;99.90;;;;;;5114507;27;20133;-76
2021/12/26 04:22:29;;;;;;;3.00;1.80;;;;;;;;;;5114115;27;20042;-76
2021/12/26 04:24:54;;;;;;;2.53;1.20;;;-6.90;99.90;;;;;;5115668;27;20054;-76
2021/12/26 04:27:21;;;;;;;2.70;1.40;;;-7.00;99.90;;;;;;5090143;27;20129;-75
2021/12/26 04:29:48;;;;;;;2.90;1.60;;;-6.90;99.90;;;;;;5080421;27;20042;-75
2021/12/26 04:32:14;;;;;;;2.33;1.40;;;-7.00;99.90;;;;;;5096054;27;20125;-75
2021/12/26 04:34:39;;;;;;;1.80;1.20;;;-7.70;99.90;;;;;;5110290;27;20045;-76
2021/12/26 04:37:05;;;;;;;2.78;1.30;;;-7.00;99.90;;;;;;5080340;27;20043;-75
2021/12/26 04:39:31;;;;;;;2.72;1.38;;;-5.10;99.90;;;;;;5111880;27;20046;-75
2021/12/26 04:41:57;;;;;;;2.30;1.40;;;;;;;;;;5105027;27;20051;-75
2021/12/26 04:44:26;;;;;;;3.42;2.10;;;-6.90;99.90;;;;;;5111113;27;20042;-75
2021/12/26 04:46:51;;;;;;;2.20;1.23;;;-7.00;99.90;;;;;;5113897;27;20061;-75
2021/12/26 04:49:17;;;;;;;2.08;1.42;;;-4.90;99.90;;;;;;5113452;27;20400;-75
2021/12/26 04:51:43;;;;;;;3.13;1.40;;;-6.90;99.90;;;;;;5125729;27;20042;-75
2021/12/26 04:54:09;;;;;;;3.47;1.50;;;-7.00;99.90;;;;;;5126286;27;20043;-75
2021/12/26 04:56:34;;;;;;;3.22;1.55;;;-6.90;99.90;;;;;;5114379;27;20447;-75
2021/12/26 04:59:01;;;;;;;4.00;1.42;;;-4.70;99.90;;;;;;5127316;27;20139;-75
2021/12/26 05:01:27;;;;;;;2.50;1.27;;;-6.30;99.90;;;;;;5124695;27;20111;-74
2021/12/26 05:03:52;;;;;;;2.08;1.40;;;-6.40;99.90;;;;;;5097767;27;20567;-75
2021/12/26 05:06:18;;;;;;;3.15;1.20;;;-7.00;99.90;;;;;;5122300;27;20039;-75
2021/12/26 05:08:44;;;;;;;3.80;1.60;;;-7.00;99.90;;;;;;5114280;27;20058;-75
2021/12/26 05:11:10;;;;;;;2.70;1.70;;;-7.10;99.90;;;;;;5109914;27;20042;-75
2021/12/26 05:13:36;;;;;;;2.47;1.45;;;-7.10;99.90;;;;;;5123657;27;20042;-75
2021/12/26 05:16:02;;;;;;;4.63;1.50;;;-7.30;99.90;;;;;;5112166;27;20047;-77
2021/12/26 05:18:28;;;;;;;4.65;1.40;;;-7.10;99.90;;;;;;5127767;27;20041;-76
2021/12/26 05:20:56;;;;;;;2.05;1.20;;;-7.10;99.90;;;;;;5104578;27;20051;-76
2021/12/26 05:23:22;;;;;;;1.90;1.30;;;-7.10;99.90;;;;;;5112671;27;20050;-75
2021/12/26 05:25:48;;;;;;;2.00;1.20;;;-7.10;99.90;;;;;;5090678;27;20107;-75
2021/12/26 05:28:14;;;;;;;2.85;1.30;;;-7.10;99.90;;;;;;5110026;27;20429;-75
2021/12/26 05:30:40;;;;;;;2.90;1.60;;;-7.10;99.90;;;;;;5110929;27;20070;-75
2021/12/26 05:33:06;;;;;;;1.98;1.25;;;-5.50;99.90;;;;;;5095397;27;20129;-75
2021/12/26 05:35:32;;;;;;;2.60;1.33;;;-6.40;99.90;;;;;;5091260;27;20122;-75
2021/12/26 05:37:59;;;;;;;2.42;1.30;;;-7.10;99.90;;;;;;5127635;27;20050;-76
2021/12/26 05:40:25;;;;;;;3.25;1.42;;;-6.90;99.90;;;;;;5110523;27;20041;-75
2021/12/26 05:42:51;;;;;;;2.92;1.60;;;-7.20;99.90;;;;;;5128634;27;20051;-75
2021/12/26 05:45:17;;;;;;;2.55;1.20;;;-7.10;99.90;;;;;;5102372;27;20042;-75
2021/12/26 05:47:43;;;;;;;2.17;1.30;;;-6.20;99.90;;;;;;5145962;27;20051;-75
2021/12/26 05:50:14;;;;;;;7.57;1.50;;;-7.10;99.90;;;;;;5111474;27;20119;-76
2021/12/26 05:52:40;;;;;;;3.78;1.35;;;-6.60;99.90;;;;;;5111904;27;20051;-75
2021/12/26 05:55:07;;;;;;;2.10;1.05;;;-5.90;99.90;;;;;;5124907;27;20034;-75
2021/12/26 05:57:33;;;;;;;2.80;1.40;;;-7.00;99.90;;;;;;5092025;27;20143;-75
2021/12/26 05:59:59;;;;;;;2.30;1.10;;;-7.10;99.90;;;;;;5109601;27;20044;-76
2021/12/26 06:02:25;;;;;;;2.33;1.38;;;-6.40;99.90;;;;;;5122373;27;20035;-75
2021/12/26 06:04:51;;;;;;;2.58;1.23;;;-7.00;99.90;;;;;;5109400;27;20050;-75
2021/12/26 06:07:17;;;;;;;3.13;1.30;;;-5.20;99.90;;;;;;5092195;27;20099;-75
2021/12/26 06:09:43;;;;;;;2.35;1.30;;;-7.00;99.90;;;;;;5121980;27;20054;-75
2021/12/26 06:12:09;;;;;;;2.75;1.40;;;-6.80;99.90;;;;;;5123258;27;20050;-75
2021/12/26 06:14:35;;;;;;;3.08;1.20;;;-7.00;99.90;;;;;;5092683;27;20162;-77
2021/12/26 06:17:01;;;;;;;3.75;1.30;;;-6.90;99.90;;;;;;5125809;27;20123;-77
2021/12/26 06:19:26;;;;;;;2.05;1.20;;;-6.90;99.90;;;;;;5123121;27;20039;-77
2021/12/26 06:21:52;;;;;;;3.38;1.40;;;-6.50;99.90;;;;;;5124278;27;20512;-77
2021/12/26 06:24:18;;;;;;;2.80;1.40;;;-4.90;99.90;;;;;;5106745;27;20528;-77
2021/12/26 06:26:46;;;;;;;2.92;1.52;;;-6.90;99.90;;;;;;5093379;27;20713;-77
2021/12/26 06:29:12;;;;;;;2.42;1.30;;;-6.90;99.90;;;;;;5106697;27;20055;-76
2021/12/26 06:31:38;;;;;;;2.25;1.30;;;-6.80;99.90;;;;;;5117649;27;20503;-77
2021/12/26 06:34:04;;;;;;;3.95;1.20;;;-6.90;99.90;;;;;;5119480;27;20050;-78
2021/12/26 06:36:29;;;;;;;2.33;1.42;;;-6.80;99.90;;;;;;5109682;27;20042;-76
2021/12/26 06:38:55;;;;;;;2.97;1.40;;;-4.90;99.90;;;;;;5089776;27;20051;-76
2021/12/26 06:41:22;;;;;;;3.17;1.42;;;-6.90;99.90;;;;;;5120633;27;20096;-76
2021/12/26 06:43:48;;;;;;;2.67;1.27;;;-6.80;99.90;;;;;;5105256;27;20780;-76
2021/12/26 06:46:15;;;;;;;2.28;1.33;;;-5.20;99.90;;;;;;5087702;27;20096;-77
2021/12/26 06:48:41;;;;;;;2.35;1.60;;;-6.70;99.90;;;;;;5119441;27;20047;-76
2021/12/26 06:51:08;;;;;;;1.80;1.42;;;-6.80;99.90;;;;;;5123664;27;20549;-77
2021/12/26 06:53:34;;;;;;;2.20;1.45;;;-6.60;99.90;;;;;;5090149;27;20068;-77
2021/12/26 06:56:00;;;;;;;2.60;1.35;;;-6.40;99.90;;;;;;5088857;27;20143;-77
2021/12/26 06:58:26;;;;;;;2.72;1.55;;;-6.80;99.90;;;;;;5104628;28;20059;-76
2021/12/26 07:00:52;;;;;;;2.58;1.50;;;-5.80;99.90;;;;;;5105890;28;20131;-76
2021/12/26 07:03:17;;;;;;;2.25;1.30;;;-6.50;99.90;;;;;;5104038;28;20043;-76
2021/12/26 07:05:43;;;;;;;3.40;1.40;;;-6.70;99.90;;;;;;5086912;28;20424;-76
2021/12/26 07:08:09;;;;;;;4.00;1.70;;;-6.80;99.90;;;;;;5123438;27;20133;-77
2021/12/26 07:10:35;;;;;;;3.40;1.50;;;-7.40;99.90;;;;;;5106672;28;20115;-77
2021/12/26 07:13:01;;;;;;;2.60;1.40;;;-6.60;99.90;;;;;;5123170;28;20052;-76
2021/12/26 07:15:27;;;;;;;2.70;1.30;;;-6.70;99.90;;;;;;5088094;28;20502;-76
2021/12/26 07:17:53;;;;;;;2.30;1.50;;;-6.70;99.90;;;;;;5109712;28;20039;-76
2021/12/26 07:20:19;;;;;;;3.10;1.83;;;-6.70;99.90;;;;;;5106056;28;20560;-76
2021/12/26 07:22:46;;;;;;;1.88;1.40;;;-5.90;99.90;;;;;;5106980;28;20078;-76
2021/12/26 07:25:13;;;;;;;3.22;1.50;;;-6.70;99.90;;;;;;5123808;28;20106;-76
2021/12/26 07:27:40;;;;;;;4.30;1.40;;;-6.70;99.90;;;;;;5120110;28;20051;-75
2021/12/26 07:30:07;;;;;;;2.58;1.50;;;-4.70;99.90;;;;;;5121888;28;20049;-76
2021/12/26 07:32:33;;;;;;;2.80;1.48;;;-6.70;99.90;;;;;;5119943;28;20036;-75
2021/12/26 07:34:59;;;;;;;2.72;1.40;;;-5.00;99.90;;;;;;5105745;28;20511;-75
2021/12/26 07:37:26;;;;;;;3.15;1.70;;;-6.50;99.90;;;;;;5088274;28;20586;-75
2021/12/26 07:39:52;;;;;;;3.05;1.67;;;-5.90;99.90;;;;;;5124386;28;20047;-75
2021/12/26 07:42:18;;;;;;;2.88;1.60;;;-4.80;99.90;;;;;;5105501;27;20131;-75
2021/12/26 07:44:44;;;;;;;2.90;1.55;;;-6.70;99.90;;;;;;5109645;27;20129;-76
2021/12/26 07:47:11;;;;;;;3.47;1.50;;;-6.50;99.90;;;;;;5123764;27;20043;-77
2021/12/26 07:49:37;;;;;;;3.03;1.73;;;-6.70;99.90;;;;;;5125717;27;20039;-76
2021/12/26 07:52:10;;;;;;;3.05;1.70;;;-4.90;99.90;;;;;;5110584;27;20039;-79
2021/12/26 07:54:36;;;;;;;6.30;1.60;;;-6.50;99.90;;;;;;5101884;27;20715;-75
2021/12/26 07:57:02;;;;;;;2.88;1.75;;;-6.70;99.90;;;;;;5112253;27;20421;-75
2021/12/26 07:59:28;;;;;;;4.03;1.63;;;-8.30;99.90;;;;;;5120507;27;20549;-76
2021/12/26 08:01:54;;;;;;;3.58;1.85;;;-6.60;99.90;;;;;;5113372;27;20046;-76
2021/12/26 08:04:20;;;;;;;2.67;1.70;;;-5.10;99.90;;;;;;5129401;27;20047;-75
2021/12/26 08:06:45;;;;;;;3.70;1.70;;;-6.70;99.90;;;;;;5110141;27;20132;-76
2021/12/26 08:09:11;;;;;;;2.03;1.30;;;-4.80;99.90;;;;;;5107171;27;20039;-77
2021/12/26 08:11:37;;;;;;;2.95;1.55;;;-6.70;99.90;;;;;;5125093;27;20047;-75
2021/12/26 08:14:03;;;;;;;3.95;1.77;;;-4.40;99.90;;;;;;5123102;27;20041;-75
2021/12/26 08:16:29;;;;;;;3.28;1.80;;;-4.60;99.90;;;;;;5123372;27;20488;-75
2021/12/26 08:18:56;;;;;;;3.33;1.60;;;-6.60;99.90;;;;;;5109022;27;20058;-75
2021/12/26 08:21:21;;;;;;;2.72;1.40;;;-6.60;99.90;;;;;;5108230;27;20203;-75
2021/12/26 08:23:47;;;;;;;3.65;1.70;;;-6.70;99.90;;;;;;5125496;27;20047;-76
2021/12/26 08:26:13;;;;;;;3.33;1.60;;;-6.00;99.90;;;;;;5107705;27;20061;-76
2021/12/26 08:28:39;;;;;;;4.05;2.00;;;-6.30;99.90;;;;;;5122344;27;20496;-76
2021/12/26 08:31:06;;;;;;;2.47;1.60;;;-6.30;99.90;;;;;;5108890;27;20051;-76
2021/12/26 08:33:32;;;;;;;5.30;1.90;;;-4.90;99.90;;;;;;5123863;27;20046;-75
2021/12/26 08:35:58;;;;;;;3.30;2.08;;;-6.40;99.90;;;;;;5106351;27;20047;-75
2021/12/26 08:38:25;;;;;;;3.80;2.15;;;-6.40;99.90;;;;;;5122392;27;20050;-76
2021/12/26 08:40:53;;;;;;;4.65;2.08;;;-6.00;99.90;;;;;;5124089;27;20075;-75
2021/12/26 08:43:20;;;;;;;3.63;1.95;;;-3.70;99.90;;;;;;5103747;27;20051;-75
2021/12/26 08:45:46;;;;;;;4.00;2.10;;;-3.70;99.90;;;;;;5125380;27;20055;-75
2021/12/26 08:48:12;;;;;;;4.38;1.55;;;-2.40;99.90;;;;;;5094803;27;20058;-75
2021/12/26 08:50:38;;;;;;;4.40;2.00;;;0.40;99.90;;;;;;5122586;27;20488;-76
2021/12/26 08:53:04;;;;;;;3.13;2.13;;;1.30;99.90;;;;;;5123803;27;20117;-74
2021/12/26 08:55:31;;;;;;;6.55;2.10;;;1.30;99.90;;;;;;5087085;27;20043;-75
2021/12/26 08:57:58;;;;;;;4.20;1.85;;;0.40;99.90;;;;;;5119919;27;20060;-75
2021/12/26 09:00:24;;;;;;;3.75;2.15;;;0.80;99.90;;;;;;5106297;27;20484;-75
2021/12/26 09:02:51;;;;;;;4.88;1.90;;;0.90;99.90;;;;;;5106516;27;20835;-75
2021/12/26 09:05:18;;;;;;;3.45;2.22;;;-1.40;99.90;;;;;;5120600;27;20054;-78
2021/12/26 09:07:44;;;;;;;5.65;1.90;;;-0.20;99.90;;;;;;5109795;27;20104;-75
2021/12/26 09:10:12;;;;;;;4.82;2.10;;;-0.50;99.90;;;;;;5091580;27;20257;-76
2021/12/26 09:12:39;;;;;;;6.25;2.40;;;-3.00;99.90;;;;;;5120283;27;20043;-77
2021/12/26 09:15:06;;;;;;;5.15;1.70;;;-1.50;99.90;;;;;;5122663;27;20054;-75
2021/12/26 09:17:33;;;;;;;3.55;2.00;;;-3.70;99.90;;;;;;5105830;27;20043;-77
2021/12/26 09:19:58;;;;;;;3.63;2.00;;;-2.40;99.90;;;;;;5122929;27;20122;-74
2021/12/26 09:22:24;;;;;;;4.35;2.40;;;-2.20;99.90;;;;;;5089692;27;20138;-74
2021/12/26 09:24:51;;;;;;;3.05;1.70;;;-3.50;99.90;;;;;;5123105;27;20337;-75
2021/12/26 09:27:18;;;;;;;4.35;2.15;;;;;;;;;;5123206;27;20126;-79
2021/12/26 09:29:44;;;;;;;3.05;1.88;;;-4.50;99.90;;;;;;5129506;27;20130;-75
2021/12/26 09:32:09;;;;;;;4.43;2.10;;;-2.80;99.90;;;;;;5119148;27;20129;-75
2021/12/26 09:34:36;;;;;;;4.97;2.40;;;-2.20;99.90;;;;;;5118696;27;20111;-75
2021/12/26 09:37:04;;;;;;;2.72;1.90;;;-2.70;99.90;;;;;;5110192;27;20047;-75
2021/12/26 09:39:31;;;;;;;2.70;1.85;;;-3.40;99.90;;;;;;5111905;27;20054;-75
2021/12/26 09:41:57;;;;;;;3.00;1.90;;;-3.10;99.90;;;;;;5128348;27;20453;-75
2021/12/26 09:44:23;;;;;;;3.90;1.90;;;-1.30;99.90;;;;;;5109943;27;20054;-76
2021/12/26 09:46:49;;;;;;;3.08;2.17;;;-2.60;99.90;;;;;;5108226;27;20104;-75
2021/12/26 09:49:15;;;;;;;6.22;1.98;;;-2.10;99.90;;;;;;5124893;27;20122;-78
2021/12/26 09:51:41;;;;;;;3.58;2.00;;;-2.50;99.90;;;;;;5083421;27;20046;-76
2021/12/26 09:54:08;;;;;;;3.15;2.13;;;-2.20;99.90;;;;;;5123686;27;20097;-76
2021/12/26 09:56:35;;;;;;;4.07;1.92;;;-2.40;99.90;;;;;;5120435;27;20051;-79
2021/12/26 09:59:07;;;;;;;4.13;2.20;;;-2.20;99.90;;;;;;5128981;27;20047;-79
2021/12/26 10:01:34;;;;;;;3.55;1.92;;;-1.70;99.90;;;;;;5108571;27;20051;-76
2021/12/26 10:04:19;;;;;;;4.25;2.13;;;-0.50;99.90;;;;;;5129347;27;20046;-76
2021/12/26 10:06:47;;;;;;;4.85;2.10;;;-1.30;99.90;;;;;;5128762;27;20047;-76
2021/12/26 10:09:13;;;;;;;3.55;2.20;;;-0.30;99.90;;;;;;5128776;27;20061;-76
2021/12/26 10:11:49;;;;;;;3.03;2.15;;;2.80;99.90;;;;;;5110038;27;20035;-76
2021/12/26 10:14:35;;;;;;;4.05;2.10;;;2.20;99.90;;;;;;5109984;27;20575;-76
2021/12/26 10:17:10;;;;;;;2.88;2.10;;;2.10;99.90;;;;;;5111370;27;20054;-76
2021/12/26 10:19:44;;;;;;;3.53;2.08;;;2.90;99.30;;;;;;5111657;27;20057;-76
2021/12/26 10:22:13;;;;;;;3.55;2.13;;;1.60;99.90;;;;;;5109519;27;20048;-77
2021/12/26 10:24:45;;;;;;;3.83;2.10;;;0.70;99.90;;;;;;5125050;27;20058;-77
2021/12/26 10:27:19;;;;;;;4.93;2.15;;;0.60;99.90;;;;;;5111676;27;20046;-77
2021/12/26 10:29:54;;;;;;;2.85;2.10;;;1.70;99.90;;;;;;5126965;27;20055;-78
2021/12/26 10:32:22;;;;;;;4.57;2.00;;;4.00;99.90;;;;;;5127039;27;20079;-77
2021/12/26 10:34:50;;;;;;;3.20;1.98;;;2.90;99.90;;;;;;5127196;27;20046;-77
2021/12/26 10:37:18;;;;;;;4.30;2.30;;;3.50;99.90;;;;;;5128022;27;20076;-78
2021/12/26 10:39:51;;;;;;;2.75;1.90;;;3.90;99.30;;;;;;5119870;27;21034;-78
2021/12/26 10:42:37;;;;;;;4.32;2.13;;;4.60;99.90;;;;;;5109767;27;20073;-78
2021/12/26 10:45:05;;;;;;;;;;;3.60;93.40;;;;;;5108288;27;20128;-77
2021/12/26 10:47:33;;;;;;;3.80;2.10;;;3.40;87.80;;;;;;5128736;27;19920;-86
2021/12/26 10:50:01;;;;;;;4.78;2.17;;;3.50;98.80;;;;;;5111615;27;20089;-78
2021/12/26 10:52:32;;;;;;;6.75;2.40;;;3.80;99.40;;;;;;5117195;27;20043;-78
2021/12/26 10:55:12;;;;;;;3.92;2.10;;;3.90;98.80;;;;;;5127025;27;20480;-78
2021/12/26 10:57:43;;;;;;;3.95;2.20;;;3.50;97.70;;;;;;5101902;27;20088;-78
2021/12/26 11:00:17;;;;;;;4.40;2.03;;;2.80;99.30;;;;;;5112507;27;20373;-78
2021/12/26 11:02:52;;;;;;;3.90;2.25;;;2.10;99.90;;;;;;5119045;27;20415;-77
2021/12/26 11:05:20;;;;;;;4.65;2.22;;;1.40;99.90;;;;;;5121783;27;20047;-77
2021/12/26 11:07:54;;;;;;;3.65;2.28;;;0.80;99.90;;;;;;5122003;27;20081;-77
2021/12/26 11:10:26;;;;;;;3.97;2.33;;;2.20;99.90;;;;;;5122938;27;20051;-77
2021/12/26 11:12:58;;;;;;;4.88;1.90;;;-0.60;99.90;;;;;;5126035;27;20049;-78
2021/12/26 11:15:27;;;;;;;6.15;2.67;;;-0.30;99.90;;;;;;5124550;28;20070;-77
2021/12/26 11:18:02;;;;;;;3.65;2.33;;;0.80;99.90;;;;;;5120242;27;20051;-77
2021/12/26 11:20:38;;;;;;;3.33;1.93;;;-0.80;99.90;;;;;;5118377;28;20043;-78
2021/12/26 11:23:09;;;;;;;;;;;-1.00;99.90;;;;;;5104547;28;20054;-78
2021/12/26 11:25:37;;;;;;;5.88;2.50;;;0.50;99.90;;;;;;5106683;28;19920;-77
2021/12/26 11:28:03;;;;;;;4.43;2.60;;;-1.30;99.90;;;;;;5123130;28;20051;-78
2021/12/26 11:30:28;;;;;;;4.68;2.42;;;-1.40;99.90;;;;;;5122811;28;20047;-78
2021/12/26 11:32:55;;;;;;;3.97;2.35;;;-1.50;99.90;;;;;;5090521;28;20043;-77
2021/12/26 11:35:21;;;;;;;4.88;2.28;;;-1.60;99.90;;;;;;5107789;28;20039;-78
2021/12/26 11:37:48;;;;;;;3.65;2.22;;;0.00;99.90;;;;;;5121339;28;20058;-77
2021/12/26 11:40:16;;;;;;;3.60;2.20;;;-0.60;99.90;;;;;;5103526;28;20050;-77
2021/12/26 11:43:19;;;;;;;4.80;2.67;;;-1.70;99.90;;;;;;5120997;28;20598;-77
2021/12/26 11:46:09;;;;;;;3.38;2.15;;;-1.70;99.90;;;;;;5122638;28;20043;-77
2021/12/26 11:49:07;;;;;;;4.50;2.60;;;-1.60;99.90;;;;;;5121606;28;20404;-77
2021/12/26 11:51:42;;;;;;;4.03;2.35;;;-0.10;99.90;;;;;;5096408;28;20059;-78
2021/12/26 11:54:33;;;;;;;3.55;2.65;;;-1.60;99.90;;;;;;5119499;28;20583;-77
2021/12/26 11:57:21;;;;;;;4.63;2.60;;;-1.70;99.90;;;;;;5113990;28;20039;-77
2021/12/26 12:00:09;;;;;;;5.43;2.67;;;-1.80;99.90;;;;;;5120233;28;20074;-78
2021/12/26 12:02:42;;;;;;;4.90;2.80;;;-1.80;99.90;;;;;;5122350;28;20493;-78
2021/12/26 12:05:07;;;;;;;4.22;2.72;;;-1.90;99.90;;;;;;5108362;28;20043;-77
2021/12/26 12:08:12;;;;;;;5.28;2.60;;;-2.00;99.90;;;;;;5118367;28;20035;-77
2021/12/26 12:10:52;;;;;;;4.13;2.35;;;-2.00;99.90;;;;;;5073241;28;20059;-77
2021/12/26 12:13:27;;;;;;;3.28;2.28;;;-2.00;99.90;;;;;;5115759;28;20039;-77
2021/12/26 12:15:55;;;;;;;5.45;2.65;;;-2.00;99.90;;;;;;5119885;28;20245;-77
2021/12/26 12:18:27;;;;;;;5.05;2.83;;;-2.00;99.90;;;;;;5105600;28;20046;-81
2021/12/26 12:21:08;;;;;;;4.90;2.70;;;-1.40;99.90;;;;;;5108560;28;20130;-82
2021/12/26 12:23:35;;;;;;;4.22;2.85;;;-2.10;99.90;;;;;;5121596;28;20043;-78
2021/12/26 12:26:01;;;;;;;4.18;2.50;;;-0.60;99.90;;;;;;5107772;28;20099;-81
2021/12/26 12:28:30;;;;;;;6.00;3.05;;;-1.60;99.90;;;;;;5120390;28;20035;-77
2021/12/26 12:31:08;;;;;;;5.47;3.00;;;-0.60;99.90;;;;;;5125564;27;20059;-77
2021/12/26 12:33:35;;;;;;;6.00;3.50;;;-2.10;99.90;;;;;;5125395;27;20071;-79
2021/12/26 12:36:09;;;;;;;6.95;3.70;;;-2.10;99.90;;;;;;5110713;27;20050;-77
2021/12/26 12:38:46;;;;;;;4.70;3.33;;;-2.00;99.90;;;;;;5125898;27;20078;-77
2021/12/26 12:41:35;;;;;;;5.63;3.38;;;-2.10;99.90;;;;;;5128443;27;20043;-76
2021/12/26 12:44:03;;;;;;;5.35;2.70;;;-0.60;99.90;;;;;;5120824;27;20042;-76
2021/12/26 12:46:29;;;;;;;5.80;3.60;;;-1.50;99.90;;;;;;5130590;27;20062;-76
2021/12/26 12:49:03;;;;;;;4.35;2.97;;;-1.50;99.90;;;;;;5122108;27;20190;-76
2021/12/26 12:51:32;;;;;;;4.97;3.17;;;-2.10;99.90;;;;;;5128069;27;20441;-77
2021/12/26 12:54:01;;;;;;;5.63;2.90;;;-2.10;99.90;;;;;;5111482;27;20129;-76
2021/12/26 12:56:30;;;;;;;5.47;3.17;;;0.00;99.90;;;;;;5123621;27;20051;-77
2021/12/26 12:59:21;;;;;;;10.15;3.88;;;-2.10;99.90;;;;;;5104316;27;20059;-77
2021/12/26 13:01:50;;;;;;;4.30;2.70;;;-2.10;99.90;;;;;;5080728;28;20055;-77